createdAt,value
2019-03-26T00:02:17.497Z,103032.30
2019-03-26T00:04:51.752Z,103026.67
2019-03-26T00:07:26.306Z,103026.67
2019-03-26T00:10:00.811Z,103033.98
2019-03-26T00:12:35.336Z,103042.05
2019-03-26T00:15:09.674Z,103042.05
2019-03-26T00:17:43.904Z,103044.67
2019-03-26T00:20:18.156Z,103044.67
2019-03-26T00:22:52.404Z,103048.64
2019-03-26T00:25:26.736Z,103048.64
2019-03-26T00:28:00.953Z,103045.44
2019-03-26T00:30:35.280Z,103031.83
2019-03-26T00:33:10.195Z,103033.02
2019-03-26T00:35:44.439Z,103032.95
2019-03-26T00:38:19.067Z,103025.25
2019-03-26T00:40:53.324Z,103023.73
2019-03-26T00:43:27.567Z,103015.40
2019-03-26T00:46:01.826Z,103015.40
2019-03-26T00:48:36.034Z,103019.29
2019-03-26T00:51:10.624Z,103026.16
2019-03-26T00:53:45.100Z,103037.88
2019-03-26T00:56:20.382Z,103037.88
2019-03-26T00:58:54.948Z,103021.70
2019-03-26T01:01:29.204Z,103021.70
2019-03-26T01:04:03.712Z,103032.39
2019-03-26T01:06:37.956Z,103032.39
2019-03-26T01:09:12.186Z,103027.00
2019-03-26T01:11:46.439Z,103035.77
2019-03-26T01:14:21.006Z,103033.55
2019-03-26T01:16:55.271Z,103036.23
2019-03-26T01:19:29.528Z,103043.37
2019-03-26T01:22:03.861Z,103043.37
2019-03-26T01:24:38.080Z,103037.98
2019-03-26T01:27:12.593Z,103050.36
2019-03-26T01:29:46.826Z,103047.30
2019-03-26T01:32:21.441Z,103049.38
2019-03-26T01:34:55.668Z,103042.80
2019-03-26T01:37:29.911Z,103041.70
2019-03-26T01:40:04.625Z,103049.52
2019-03-26T01:42:39.156Z,103049.52
2019-03-26T01:45:13.660Z,103042.25
2019-03-26T01:47:48.007Z,103049.12
2019-03-26T01:50:22.239Z,103049.12
2019-03-26T01:52:56.561Z,103050.61
2019-03-26T01:55:30.800Z,103043.77
2019-03-26T01:58:05.184Z,103053.59
2019-03-26T02:00:39.444Z,103059.05
2019-03-26T02:03:13.688Z,103059.05
2019-03-26T02:05:47.932Z,103045.92
2019-03-26T02:08:22.178Z,103037.84
2019-03-26T02:10:56.413Z,103056.43
2019-03-26T02:13:31.048Z,103044.12
2019-03-26T02:16:05.345Z,103044.12
2019-03-26T02:18:39.592Z,103044.86
2019-03-26T02:21:14.697Z,103044.86
2019-03-26T02:23:48.949Z,103039.33
2019-03-26T02:26:23.189Z,103043.03
2019-03-26T02:28:57.437Z,103044.44
2019-03-26T02:31:31.676Z,103042.03
2019-03-26T02:34:05.955Z,103042.03
2019-03-26T02:36:40.223Z,103042.50
2019-03-26T02:39:14.459Z,103041.30
2019-03-26T02:41:49.106Z,103041.92
2019-03-26T02:44:23.665Z,103039.29
2019-03-26T02:46:57.896Z,103033.33
2019-03-26T02:49:32.404Z,103033.33
2019-03-26T02:52:06.643Z,103041.33
2019-03-26T02:54:40.923Z,103027.67
2019-03-26T02:57:15.148Z,103027.81
2019-03-26T02:59:49.647Z,103031.25
2019-03-26T03:02:23.882Z,103027.16
2019-03-26T03:04:58.130Z,103029.71
2019-03-26T03:07:32.631Z,103029.71
2019-03-26T03:10:07.689Z,103027.01
2019-03-26T03:12:41.922Z,103027.49
2019-03-26T03:15:16.726Z,103022.77
2019-03-26T03:17:51.029Z,103029.56
2019-03-26T03:20:25.289Z,103022.64
2019-03-26T03:22:59.524Z,103018.75
2019-03-26T03:25:33.768Z,103018.75
2019-03-26T03:28:08.002Z,103020.23
2019-03-26T03:30:42.248Z,103021.19
2019-03-26T03:33:17.190Z,103029.09
2019-03-26T03:35:53.076Z,103029.09
2019-03-26T03:38:27.602Z,103023.72
2019-03-26T03:41:02.343Z,103018.88
2019-03-26T03:43:36.565Z,103018.43
2019-03-26T03:46:10.977Z,103025.22
2019-03-26T03:48:45.887Z,103015.74
2019-03-26T03:51:22.709Z,103021.52
2019-03-26T03:53:57.531Z,103021.52
2019-03-26T03:56:34.294Z,103019.24
2019-03-26T03:59:10.626Z,103014.98
2019-03-26T04:01:44.880Z,103010.42
2019-03-26T04:04:19.104Z,103010.42
2019-03-26T04:06:53.720Z,103003.05
2019-03-26T04:09:28.254Z,103003.84
2019-03-26T04:12:02.807Z,103007.94
2019-03-26T04:14:37.039Z,103007.34
2019-03-26T04:17:11.289Z,102999.95
2019-03-26T04:19:45.519Z,103001.70
2019-03-26T04:22:19.762Z,103006.13
2019-03-26T04:24:53.997Z,103009.28
2019-03-26T04:27:28.252Z,103019.30
2019-03-26T04:30:02.561Z,103018.20
2019-03-26T04:32:36.969Z,103010.82
2019-03-26T04:35:11.290Z,103007.34
2019-03-26T04:37:45.890Z,103018.58
2019-03-26T04:40:20.934Z,103013.14
2019-03-26T04:42:55.450Z,103011.98
2019-03-26T04:45:30.100Z,103020.73
2019-03-26T04:48:04.605Z,103012.55
2019-03-26T04:50:38.839Z,103015.61
2019-03-26T04:53:13.392Z,103017.17
2019-03-26T04:55:47.703Z,103007.55
2019-03-26T04:58:22.236Z,103010.60
2019-03-26T05:00:56.471Z,103010.24
2019-03-26T05:03:31.002Z,103000.84
2019-03-26T05:06:05.230Z,103008.77
2019-03-26T05:08:39.570Z,103006.12
2019-03-26T05:11:14.059Z,103010.55
2019-03-26T05:13:49.565Z,103017.83
2019-03-26T05:16:23.801Z,103017.84
2019-03-26T05:18:58.316Z,103022.41
2019-03-26T05:21:32.648Z,103023.47
2019-03-26T05:24:06.965Z,103026.91
2019-03-26T05:26:41.462Z,103021.95
2019-03-26T05:29:15.696Z,103018.50
2019-03-26T05:31:49.936Z,103015.70
2019-03-26T05:34:24.167Z,103014.69
2019-03-26T05:36:58.417Z,103021.45
2019-03-26T05:39:32.960Z,103021.80
2019-03-26T05:42:07.481Z,103015.55
2019-03-26T05:44:41.724Z,103013.88
2019-03-26T05:47:15.982Z,103013.95
2019-03-26T05:49:50.229Z,103023.23
2019-03-26T05:52:24.480Z,103023.88
2019-03-26T05:54:59.077Z,103029.95
2019-03-26T05:57:33.599Z,103031.53
2019-03-26T06:00:11.320Z,103036.65
2019-03-26T06:02:45.652Z,103032.93
2019-03-26T06:05:19.896Z,103032.73
2019-03-26T06:07:54.151Z,103031.78
2019-03-26T06:10:28.389Z,103030.18
2019-03-26T06:13:02.651Z,103038.42
2019-03-26T06:15:36.874Z,103039.50
2019-03-26T06:18:11.404Z,103031.05
2019-03-26T06:20:45.634Z,103034.70
2019-03-26T06:23:19.878Z,103036.05
2019-03-26T06:25:54.122Z,103048.35
2019-03-26T06:28:28.372Z,103048.66
2019-03-26T06:31:02.608Z,103040.89
2019-03-26T06:33:36.863Z,103024.25
2019-03-26T06:36:11.102Z,103010.80
2019-03-26T06:38:45.344Z,103010.80
2019-03-26T06:41:19.602Z,103022.01
2019-03-26T06:43:53.875Z,103013.25
2019-03-26T06:46:28.116Z,103019.44
2019-03-26T06:49:02.380Z,103019.36
2019-03-26T06:51:36.626Z,103011.56
2019-03-26T06:54:10.880Z,103019.55
2019-03-26T06:56:45.115Z,103019.55
2019-03-26T06:59:19.432Z,103035.27
2019-03-26T07:01:53.747Z,103035.27
2019-03-26T07:04:28.607Z,103034.88
2019-03-26T07:07:02.854Z,103034.88
2019-03-26T07:09:37.178Z,103035.36
2019-03-26T07:12:11.423Z,103034.88
2019-03-26T07:14:45.991Z,103043.52
2019-03-26T07:17:20.227Z,103041.83
2019-03-26T07:19:54.740Z,103033.77
2019-03-26T07:22:29.217Z,103028.36
2019-03-26T07:25:03.966Z,103035.33
2019-03-26T07:27:38.696Z,103035.33
2019-03-26T07:30:15.399Z,103032.02
2019-03-26T07:32:49.639Z,103038.02
2019-03-26T07:35:23.896Z,103038.04
2019-03-26T07:37:58.124Z,103029.25
2019-03-26T07:40:32.381Z,103029.25
2019-03-26T07:43:07.074Z,103042.94
2019-03-26T07:45:41.628Z,103048.08
2019-03-26T07:48:15.855Z,103060.58
2019-03-26T07:50:50.101Z,103047.72
2019-03-26T07:53:24.627Z,103054.13
2019-03-26T07:55:59.475Z,103052.97
2019-03-26T07:58:33.707Z,103049.25
2019-03-26T08:01:07.965Z,103045.50
2019-03-26T08:03:42.196Z,103047.19
2019-03-26T08:06:16.519Z,103050.39
2019-03-26T08:08:50.756Z,103056.23
2019-03-26T08:11:25.001Z,103063.20
2019-03-26T08:13:59.247Z,103060.05
2019-03-26T08:16:33.511Z,103055.61
2019-03-26T08:19:07.727Z,103066.06
2019-03-26T08:21:42.237Z,103060.59
2019-03-26T08:24:16.471Z,103041.77
2019-03-26T08:26:52.189Z,103053.09
2019-03-26T08:29:26.440Z,103063.99
2019-03-26T08:32:00.699Z,103058.41
2019-03-26T08:34:34.941Z,103060.70
2019-03-26T08:37:09.191Z,103063.13
2019-03-26T08:39:43.622Z,103058.36
2019-03-26T08:42:17.858Z,103066.55
2019-03-26T08:44:52.400Z,103075.70
2019-03-26T08:47:26.681Z,103075.35
2019-03-26T08:50:00.922Z,103079.52
2019-03-26T08:52:35.168Z,103074.52
2019-03-26T08:55:09.795Z,103089.27
2019-03-26T08:57:44.045Z,103079.72
2019-03-26T09:00:18.542Z,103084.16
2019-03-26T09:02:53.074Z,103085.96
2019-03-26T09:05:27.313Z,103090.27
2019-03-26T09:08:01.601Z,103088.95
2019-03-26T09:10:35.920Z,103093.72
2019-03-26T09:13:10.160Z,103089.36
2019-03-26T09:15:44.779Z,103090.51
2019-03-26T09:18:19.692Z,103094.42
2019-03-26T09:20:53.935Z,103088.85
2019-03-26T09:23:28.205Z,103096.76
2019-03-26T09:26:02.705Z,103097.75
2019-03-26T09:28:37.220Z,103099.66
2019-03-26T09:31:11.455Z,103104.00
2019-03-26T09:33:45.745Z,103097.95
2019-03-26T09:36:20.052Z,103098.47
2019-03-26T09:38:54.302Z,103099.02
2019-03-26T09:41:28.531Z,103094.27
2019-03-26T09:44:02.790Z,103093.02
2019-03-26T09:46:37.291Z,103095.25
2019-03-26T09:49:11.568Z,103089.02
2019-03-26T09:51:45.807Z,103097.95
2019-03-26T09:54:20.063Z,103094.64
2019-03-26T09:56:54.299Z,103098.81
2019-03-26T09:59:28.556Z,103106.91
2019-03-26T10:02:02.882Z,103100.80
2019-03-26T10:04:37.139Z,103107.30
2019-03-26T10:07:20.843Z,103106.44
2019-03-26T10:09:47.345Z,103112.14
2019-03-26T10:12:21.897Z,103112.97
2019-03-26T10:14:56.208Z,103110.02
2019-03-26T10:17:30.517Z,103107.69
2019-03-26T10:20:05.398Z,103111.23
2019-03-26T10:22:40.166Z,103108.04
2019-03-26T10:25:14.508Z,103103.23
2019-03-26T10:27:48.750Z,103104.31
2019-03-26T10:30:33.619Z,103112.23
2019-03-26T10:33:08.547Z,103106.23
2019-03-26T10:35:42.791Z,103101.88
2019-03-26T10:38:17.024Z,103107.98
2019-03-26T10:40:51.278Z,103103.53
2019-03-26T10:43:25.513Z,103100.49
2019-03-26T10:45:59.841Z,103105.85
2019-03-26T10:48:34.438Z,103108.97
2019-03-26T10:51:08.721Z,103108.78
2019-03-26T10:53:42.956Z,103102.11
2019-03-26T10:56:17.222Z,103104.13
2019-03-26T10:58:51.476Z,103105.52
2019-03-26T11:01:25.737Z,103115.86
2019-03-26T11:03:59.980Z,103106.59
2019-03-26T11:06:34.243Z,103096.19
2019-03-26T11:09:19.813Z,103085.61
2019-03-26T11:11:45.188Z,103085.03
2019-03-26T11:14:19.432Z,103088.95
2019-03-26T11:16:53.981Z,103085.84
2019-03-26T11:19:28.483Z,103091.53
2019-03-26T11:22:02.738Z,103085.47
2019-03-26T11:24:36.973Z,103083.57
2019-03-26T11:27:11.226Z,103073.31
2019-03-26T11:29:45.474Z,103072.55
2019-03-26T11:32:19.741Z,103070.59
2019-03-26T11:34:54.311Z,103064.25
2019-03-26T11:37:28.550Z,103072.25
2019-03-26T11:40:02.845Z,103071.19
2019-03-26T11:42:37.099Z,103066.98
2019-03-26T11:45:11.976Z,103078.26
2019-03-26T11:47:46.234Z,103075.45
2019-03-26T11:50:20.491Z,103072.91
2019-03-26T11:52:54.776Z,103080.22
2019-03-26T11:55:29.013Z,103075.72
2019-03-26T11:58:03.270Z,103073.97
2019-03-26T12:00:38.920Z,103071.08
2019-03-26T12:03:13.204Z,103066.63
2019-03-26T12:05:47.438Z,103072.28
2019-03-26T12:08:21.705Z,103064.51
2019-03-26T12:10:55.953Z,103057.70
2019-03-26T12:13:30.770Z,103063.11
2019-03-26T12:16:05.185Z,103063.87
2019-03-26T12:18:39.814Z,103067.11
2019-03-26T12:21:16.030Z,103057.68
2019-03-26T12:23:50.285Z,103060.56
2019-03-26T12:26:24.530Z,103062.45
2019-03-26T12:28:59.056Z,103064.02
2019-03-26T12:31:33.297Z,103055.11
2019-03-26T12:34:07.655Z,103050.89
2019-03-26T12:36:41.905Z,103062.45
2019-03-26T12:39:16.448Z,103056.19
2019-03-26T12:41:50.687Z,103055.63
2019-03-26T12:44:25.028Z,103065.12
2019-03-26T12:46:59.587Z,103064.19
2019-03-26T12:49:33.916Z,103060.44
2019-03-26T12:52:08.165Z,103053.73
2019-03-26T12:54:43.109Z,103048.55
2019-03-26T12:57:17.348Z,103052.03
2019-03-26T12:59:51.647Z,103065.91
2019-03-26T13:02:25.889Z,103056.22
2019-03-26T13:05:00.353Z,103058.23
2019-03-26T13:07:34.623Z,103059.32
2019-03-26T13:10:13.814Z,103060.52
2019-03-26T13:12:45.398Z,103067.55
2019-03-26T13:15:20.182Z,103064.00
2019-03-26T13:17:54.419Z,103067.54
2019-03-26T13:20:28.675Z,103066.89
2019-03-26T13:23:02.918Z,103061.55
2019-03-26T13:25:37.454Z,103067.66
2019-03-26T13:28:11.850Z,103065.29
2019-03-26T13:30:46.194Z,103068.43
2019-03-26T13:33:20.430Z,103067.98
2019-03-26T13:35:54.689Z,103060.33
2019-03-26T13:38:28.924Z,103059.17
2019-03-26T13:41:03.362Z,103057.58
2019-03-26T13:43:37.591Z,103051.11
2019-03-26T13:46:11.897Z,103054.20
2019-03-26T13:48:46.130Z,103053.23
2019-03-26T13:51:20.468Z,103049.05
2019-03-26T13:53:55.015Z,103048.98
2019-03-26T13:56:30.129Z,103048.81
2019-03-26T13:59:04.475Z,103045.73
2019-03-26T14:01:42.061Z,103041.39
2019-03-26T14:04:16.611Z,103047.41
2019-03-26T14:06:52.521Z,103056.17
2019-03-26T14:09:26.948Z,103049.52
2019-03-26T14:12:01.197Z,103047.27
2019-03-26T14:14:35.437Z,103046.98
2019-03-26T14:17:09.718Z,103044.27
2019-03-26T14:19:44.028Z,103046.29
2019-03-26T14:22:18.311Z,103048.98
2019-03-26T14:24:52.556Z,103050.08
2019-03-26T14:27:26.816Z,103052.11
2019-03-26T14:30:01.128Z,103048.97
2019-03-26T14:32:35.959Z,103049.09
2019-03-26T14:35:10.353Z,103040.98
2019-03-26T14:37:51.200Z,103049.00
2019-03-26T14:40:20.545Z,103043.77
2019-03-26T14:42:54.800Z,103036.91
2019-03-26T14:45:29.216Z,103040.59
2019-03-26T14:48:03.474Z,103042.81
2019-03-26T14:50:37.784Z,103045.12
2019-03-26T14:53:12.045Z,103043.57
2019-03-26T14:55:46.276Z,103039.03
2019-03-26T14:58:20.869Z,103041.45
2019-03-26T15:00:55.183Z,103051.23
2019-03-26T15:03:29.457Z,103047.64
2019-03-26T15:06:04.726Z,103049.58
2019-03-26T15:08:38.998Z,103039.73
2019-03-26T15:11:13.232Z,103042.22
2019-03-26T15:13:49.460Z,103046.95
2019-03-26T15:16:23.439Z,103049.66
2019-03-26T15:18:57.690Z,103053.63
2019-03-26T15:21:32.005Z,103046.48
2019-03-26T15:24:06.254Z,103049.48
2019-03-26T15:26:40.575Z,103048.91
2019-03-26T15:29:14.824Z,103041.84
2019-03-26T15:31:49.125Z,103049.20
2019-03-26T15:34:35.609Z,103046.48
2019-03-26T15:36:59.325Z,103050.84
2019-03-26T15:39:33.580Z,103050.75
2019-03-26T15:42:07.819Z,103048.02
2019-03-26T15:44:42.480Z,103041.16
2019-03-26T15:47:16.715Z,103045.12
2019-03-26T15:49:50.958Z,103047.45
2019-03-26T15:52:25.188Z,103047.34
2019-03-26T15:54:59.782Z,103044.94
2019-03-26T15:57:34.008Z,103051.13
2019-03-26T16:00:09.524Z,103048.80
2019-03-26T16:02:43.750Z,103052.17
2019-03-26T16:05:17.996Z,103049.27
2019-03-26T16:07:52.223Z,103048.03
2019-03-26T16:10:26.482Z,103047.55
2019-03-26T16:13:01.013Z,103050.81
2019-03-26T16:15:44.047Z,103053.24
2019-03-26T16:18:11.608Z,103054.11
2019-03-26T16:20:45.863Z,103041.03
2019-03-26T16:23:20.102Z,103037.38
2019-03-26T16:25:54.425Z,103030.41
2019-03-26T16:28:28.651Z,103033.09
2019-03-26T16:31:02.892Z,103033.00
2019-03-26T16:33:37.127Z,103034.81
2019-03-26T16:36:11.545Z,103030.93
2019-03-26T16:38:45.776Z,103027.17
2019-03-26T16:41:20.038Z,103032.28
2019-03-26T16:43:54.266Z,103032.85
2019-03-26T16:46:28.543Z,103032.19
2019-03-26T16:49:02.832Z,103031.77
2019-03-26T16:51:37.535Z,103036.70
2019-03-26T16:54:11.751Z,103042.70
2019-03-26T16:56:45.993Z,103036.04
2019-03-26T16:59:20.220Z,103037.39
2019-03-26T17:01:55.199Z,103039.31
2019-03-26T17:04:29.509Z,103036.39
2019-03-26T17:07:04.024Z,103032.08
2019-03-26T17:09:38.256Z,103029.64
2019-03-26T17:12:12.587Z,103035.97
2019-03-26T17:14:46.813Z,103029.43
2019-03-26T17:17:21.358Z,103033.57
2019-03-26T17:19:55.592Z,103030.47
2019-03-26T17:22:29.845Z,103027.69
2019-03-26T17:25:04.691Z,103034.61
2019-03-26T17:27:39.041Z,103038.96
2019-03-26T17:30:13.626Z,103043.84
2019-03-26T17:32:47.878Z,103043.53
2019-03-26T17:35:22.107Z,103041.09
2019-03-26T17:37:59.983Z,103045.36
2019-03-26T17:40:32.328Z,103044.52
2019-03-26T17:43:06.664Z,103041.62
2019-03-26T17:45:41.231Z,103052.34
2019-03-26T17:48:15.487Z,103050.63
2019-03-26T17:50:49.723Z,103050.16
2019-03-26T17:53:23.992Z,103044.95
2019-03-26T17:55:58.234Z,103041.97
2019-03-26T17:58:32.562Z,103046.34
2019-03-26T18:01:07.050Z,103044.20
2019-03-26T18:03:42.217Z,103049.88
2019-03-26T18:06:16.533Z,103056.08
2019-03-26T18:08:51.442Z,103062.66
2019-03-26T18:11:25.679Z,103066.08
2019-03-26T18:14:00.963Z,103074.66
2019-03-26T18:16:35.224Z,103076.56
2019-03-26T18:19:09.576Z,103085.21
2019-03-26T18:21:51.361Z,103091.00
2019-03-26T18:24:19.875Z,103087.27
2019-03-26T18:26:54.360Z,103095.69
2019-03-26T18:29:28.622Z,103104.84
2019-03-26T18:32:02.884Z,103108.97
2019-03-26T18:34:37.137Z,103106.91
2019-03-26T18:37:11.377Z,103113.17
2019-03-26T18:39:45.805Z,103111.98
2019-03-26T18:42:20.355Z,103117.32
2019-03-26T18:44:54.615Z,103112.01
2019-03-26T18:47:28.859Z,103113.44
2019-03-26T18:50:03.444Z,103113.11
2019-03-26T18:52:37.686Z,103114.78
2019-03-26T18:55:12.781Z,103111.52
2019-03-26T18:57:47.069Z,103113.81
2019-03-26T19:00:33.946Z,103103.53
2019-03-26T19:03:08.733Z,103104.01
2019-03-26T19:05:43.026Z,103101.14
2019-03-26T19:08:17.339Z,103098.28
2019-03-26T19:10:51.590Z,103102.73
2019-03-26T19:13:25.817Z,103105.42
2019-03-26T19:16:00.200Z,103106.78
2019-03-26T19:18:34.808Z,103115.23
2019-03-26T19:21:09.225Z,103115.23
2019-03-26T19:23:43.452Z,103112.14
2019-03-26T19:26:17.991Z,103112.22
2019-03-26T19:28:52.319Z,103107.84
2019-03-26T19:31:26.577Z,103105.16
2019-03-26T19:34:00.817Z,103117.69
2019-03-26T19:36:35.452Z,103113.06
2019-03-26T19:39:09.689Z,103123.33
2019-03-26T19:41:44.203Z,103118.96
2019-03-26T19:44:18.427Z,103127.91
2019-03-26T19:46:52.681Z,103118.77
2019-03-26T19:49:26.916Z,103116.08
2019-03-26T19:52:01.532Z,103136.14
2019-03-26T19:54:35.803Z,103136.80
2019-03-26T19:57:10.040Z,103135.73
2019-03-26T19:59:44.280Z,103135.73
2019-03-26T20:02:18.589Z,103138.17
2019-03-26T20:04:52.827Z,103138.17
2019-03-26T20:07:27.621Z,103129.91
2019-03-26T20:10:01.909Z,103140.47
2019-03-26T20:12:36.150Z,103145.52
2019-03-26T20:15:11.310Z,103148.59
2019-03-26T20:17:45.800Z,103148.59
2019-03-26T20:20:20.474Z,103143.75
2019-03-26T20:22:54.769Z,103152.09
2019-03-26T20:25:29.012Z,103152.09
2019-03-26T20:28:03.270Z,103145.50
2019-03-26T20:30:37.505Z,103149.91
2019-03-26T20:33:12.098Z,103156.97
2019-03-26T20:35:46.691Z,103140.19
2019-03-26T20:38:20.959Z,103140.19
2019-03-26T20:40:55.463Z,103159.17
2019-03-26T20:43:37.276Z,103147.03
2019-03-26T20:46:05.706Z,103151.26
2019-03-26T20:48:39.960Z,103156.09
2019-03-26T20:51:14.281Z,103156.09
2019-03-26T20:53:48.538Z,103153.06
2019-03-26T20:56:23.486Z,103156.34
2019-03-26T20:58:57.919Z,103150.91
2019-03-26T21:01:32.619Z,103150.41
2019-03-26T21:04:07.198Z,103155.09
2019-03-26T21:06:41.454Z,103156.14
2019-03-26T21:09:15.793Z,103154.20
2019-03-26T21:11:50.144Z,103152.52
2019-03-26T21:14:24.388Z,103155.44
2019-03-26T21:16:58.669Z,103157.64
2019-03-26T21:19:32.901Z,103154.73
2019-03-26T21:22:07.232Z,103145.16
2019-03-26T21:24:41.477Z,103141.98
2019-03-26T21:27:15.755Z,103143.27
2019-03-26T21:29:50.006Z,103147.81
2019-03-26T21:32:24.262Z,103142.04
2019-03-26T21:34:58.497Z,103135.66
2019-03-26T21:37:32.748Z,103133.66
2019-03-26T21:40:08.526Z,103131.27
2019-03-26T21:42:42.856Z,103135.55
2019-03-26T21:45:19.104Z,103144.52
2019-03-26T21:47:53.597Z,103143.64
2019-03-26T21:50:27.833Z,103150.41
2019-03-26T21:53:02.454Z,103157.69
2019-03-26T21:55:36.775Z,103160.02
2019-03-26T21:58:11.069Z,103155.58
2019-03-26T22:00:45.304Z,103152.08
2019-03-26T22:03:19.561Z,103156.68
2019-03-26T22:05:53.794Z,103152.60
2019-03-26T22:08:28.046Z,103144.39
2019-03-26T22:11:02.384Z,103148.12
2019-03-26T22:13:36.694Z,103151.27
2019-03-26T22:16:10.929Z,103148.38
2019-03-26T22:18:45.196Z,103148.44
2019-03-26T22:21:19.434Z,103146.73
2019-03-26T22:23:53.691Z,103153.12
2019-03-26T22:26:27.930Z,103154.92
2019-03-26T22:29:02.186Z,103154.67
2019-03-26T22:31:36.435Z,103159.10
2019-03-26T22:34:10.696Z,103151.94
2019-03-26T22:36:44.932Z,103151.63
2019-03-26T22:39:19.177Z,103156.53
2019-03-26T22:41:53.411Z,103156.02
2019-03-26T22:44:31.599Z,103157.97
2019-03-26T22:47:03.773Z,103165.19
2019-03-26T22:49:38.036Z,103164.67
2019-03-26T22:52:12.697Z,103171.78
2019-03-26T22:54:47.029Z,103179.83
2019-03-26T22:57:21.549Z,103177.45
2019-03-26T22:59:55.810Z,103178.38
2019-03-26T23:02:30.419Z,103179.41
2019-03-26T23:05:04.960Z,103176.01
2019-03-26T23:07:39.189Z,103171.72
2019-03-26T23:10:14.693Z,103173.62
2019-03-26T23:12:48.929Z,103174.55
2019-03-26T23:15:24.626Z,103180.42
2019-03-26T23:17:58.924Z,103175.53
2019-03-26T23:20:33.236Z,103173.41
2019-03-26T23:23:07.554Z,103173.26
2019-03-26T23:25:42.149Z,103174.45
2019-03-26T23:28:16.393Z,103182.66
2019-03-26T23:30:51.042Z,103180.65
2019-03-26T23:33:25.274Z,103183.64
2019-03-26T23:35:59.539Z,103181.08
2019-03-26T23:38:33.785Z,103186.17
2019-03-26T23:41:08.041Z,103184.67
2019-03-26T23:43:42.280Z,103186.78
2019-03-26T23:46:16.532Z,103190.04
2019-03-26T23:48:50.769Z,103189.16
2019-03-26T23:51:25.021Z,103188.38
2019-03-26T23:53:59.257Z,103192.70
2019-03-26T23:56:33.506Z,103191.52
2019-03-26T23:59:07.742Z,103192.80
